Time;durP1;ratioP1;P1;durP2;ratioP2;P2;SDS_P1;SDS_P2;PMS_P1;PMS_P2;Temp;Humidity;BMP_temperature;BMP_pressure;BME280_temperature;BME280_humidity;BME280_pressure;Samples;Min_cycle;Max_cycle;Signal;HPM_P1;HPM_P2
2022/07/17 00:02:10;;;;;;;5.13;2.90;;;;;;;13.34;66.54;98145.59;5026492;28;20045;-62
2022/07/17 00:04:37;;;;;;;4.78;3.08;;;;;;;13.35;66.49;98151.88;5025716;28;20048;-62
2022/07/17 00:07:04;;;;;;;5.55;2.60;;;;;;;13.33;66.47;98157.53;5026695;28;20120;-62
2022/07/17 00:09:31;;;;;;;5.10;2.97;;;;;;;13.35;66.39;98155.38;5027234;28;20042;-62
2022/07/17 00:11:57;;;;;;;5.82;3.03;;;;;;;13.39;66.22;98155.72;5025943;28;20056;-62
2022/07/17 00:14:24;;;;;;;5.35;3.30;;;;;;;13.33;66.25;98152.09;5026490;28;20459;-63
2022/07/17 00:16:51;;;;;;;4.88;3.13;;;;;;;13.35;66.11;98160.81;5025782;28;20041;-62
2022/07/17 00:19:18;;;;;;;4.97;3.17;;;;;;;13.33;66.27;98156.72;5025201;28;20527;-62
2022/07/17 00:21:44;;;;;;;4.32;2.80;;;;;;;13.19;66.72;98153.56;5026570;28;20045;-62
2022/07/17 00:24:12;;;;;;;4.10;3.20;;;;;;;13.01;67.67;98147.28;5025788;28;20038;-63
2022/07/17 00:26:38;;;;;;;4.60;3.03;;;;;;;12.88;68.26;98151.19;5026605;28;20504;-62
2022/07/17 00:29:05;;;;;;;6.57;3.42;;;;;;;12.94;68.02;98149.38;5045910;28;20067;-61
2022/07/17 00:31:31;;;;;;;8.10;4.05;;;;;;;12.94;68.06;98155.59;5032971;28;20456;-62
2022/07/17 00:33:58;;;;;;;4.68;3.15;;;;;;;12.99;67.66;98146.72;5025792;28;20045;-63
2022/07/17 00:36:25;;;;;;;4.82;3.53;;;;;;;12.83;68.39;98153.81;5025165;28;20045;-62
2022/07/17 00:38:52;;;;;;;5.15;3.10;;;;;;;12.86;68.19;98150.59;5026982;28;20499;-63
2022/07/17 00:41:18;;;;;;;5.05;3.50;;;;;;;12.97;67.97;98151.59;5025761;28;20049;-63
2022/07/17 00:43:46;;;;;;;5.07;3.08;;;;;;;12.89;67.83;98150.09;5025482;28;20398;-62
2022/07/17 00:46:13;;;;;;;6.40;3.35;;;;;;;12.86;67.98;98151.44;5026080;28;20060;-63
2022/07/17 00:48:40;;;;;;;6.40;3.55;;;;;;;12.80;68.14;98149.72;5025369;28;20046;-63
2022/07/17 00:51:08;;;;;;;6.50;3.63;;;;;;;12.78;68.37;98161.91;5025493;28;20041;-62
2022/07/17 00:53:36;;;;;;;4.75;3.05;;;;;;;12.73;68.42;98157.19;5037916;28;20044;-62
2022/07/17 00:56:05;;;;;;;4.40;3.13;;;;;;;12.71;68.60;98153.88;5037071;28;20052;-63
2022/07/17 00:58:35;;;;;;;5.95;3.88;;;;;;;12.64;68.68;98142.38;5025340;28;20504;-62
2022/07/17 01:01:06;;;;;;;4.90;3.63;;;;;;;12.62;69.25;98150.78;5025214;28;20060;-63
2022/07/17 01:03:33;;;;;;;8.13;4.00;;;;;;;12.47;69.59;98157.59;5025898;28;20042;-62
2022/07/17 01:06:00;;;;;;;7.50;3.83;;;;;;;12.58;69.35;98157.75;5025442;28;20051;-62
2022/07/17 01:08:26;;;;;;;6.05;3.95;;;;;;;12.63;68.77;98167.91;5025567;28;20054;-62
2022/07/17 01:10:53;;;;;;;5.28;4.03;;;;;;;12.48;69.33;98155.69;5025496;28;20041;-63
2022/07/17 01:13:20;;;;;;;6.50;3.70;;;;;;;12.44;69.79;98159.97;5024404;28;20055;-62
2022/07/17 01:15:47;;;;;;;8.43;3.92;;;;;;;12.34;69.86;98161.44;5025504;28;20050;-63
2022/07/17 01:18:15;;;;;;;5.63;3.65;;;;;;;12.37;69.87;98162.84;5025669;28;20045;-63
2022/07/17 01:20:45;;;;;;;7.60;4.53;;;;;;;12.29;69.99;98163.22;5025893;28;20400;-62
2022/07/17 01:23:13;;;;;;;5.88;3.90;;;;;;;12.15;70.79;98162.69;5030237;28;20053;-62
2022/07/17 01:25:42;;;;;;;5.13;3.45;;;;;;;12.31;70.10;98164.63;5024642;28;20060;-63
2022/07/17 01:28:09;;;;;;;6.45;3.53;;;;;;;12.34;70.04;98161.44;5025049;28;20048;-62
2022/07/17 01:30:35;;;;;;;6.65;3.72;;;;;;;12.35;69.92;98154.94;5025156;28;20046;-62
2022/07/17 01:33:03;;;;;;;7.68;4.10;;;;;;;12.35;69.81;98159.56;5025444;28;20046;-62
2022/07/17 01:35:29;;;;;;;5.13;3.45;;;;;;;12.17;70.67;98161.38;5024518;28;20035;-62
2022/07/17 01:37:56;;;;;;;4.93;3.40;;;;;;;12.10;70.89;98153.38;5026377;28;20060;-62
2022/07/17 01:40:23;;;;;;;5.13;3.35;;;;;;;12.19;70.48;98155.72;5024998;28;20064;-63
2022/07/17 01:42:50;;;;;;;5.80;3.67;;;;;;;12.16;70.74;98157.03;5024700;28;20054;-62
2022/07/17 01:45:18;;;;;;;4.82;3.72;;;;;;;12.10;70.87;98161.53;5025194;28;20049;-62
2022/07/17 01:47:46;;;;;;;6.43;4.35;;;;;;;12.02;71.16;98158.38;5025031;28;20041;-62
2022/07/17 01:50:14;;;;;;;5.88;3.78;;;;;;;11.91;71.56;98158.16;5042240;28;20041;-63
2022/07/17 01:52:43;;;;;;;6.53;4.20;;;;;;;11.79;72.05;98162.81;5043328;28;20041;-62
2022/07/17 01:55:12;;;;;;;10.30;4.60;;;;;;;11.76;72.02;98153.25;5045215;28;20033;-63
2022/07/17 01:57:38;;;;;;;8.65;4.82;;;;;;;11.74;72.25;98163.53;5016272;28;20555;-63
2022/07/17 02:00:12;;;;;;;5.65;4.10;;;;;;;11.65;72.64;98159.53;5022309;28;20439;-62
2022/07/17 02:02:39;;;;;;;6.85;3.63;;;;;;;11.71;72.36;98162.13;5031474;28;20471;-63
2022/07/17 02:05:05;;;;;;;6.60;4.57;;;;;;;11.74;72.48;98149.97;5043788;28;20484;-63
2022/07/17 02:07:33;;;;;;;5.75;4.20;;;;;;;11.67;72.96;98149.25;5033320;28;20045;-62
2022/07/17 02:09:59;;;;;;;8.02;4.55;;;;;;;11.62;72.60;98152.72;5034748;28;20496;-62
2022/07/17 02:12:26;;;;;;;6.38;4.03;;;;;;;11.63;72.82;98158.94;5025498;28;20045;-62
2022/07/17 02:14:52;;;;;;;9.38;4.20;;;;;;;11.60;72.97;98154.81;5024600;28;20523;-62
2022/07/17 02:17:19;;;;;;;5.80;4.10;;;;;;;11.60;73.08;98154.00;5024547;28;20509;-62
2022/07/17 02:19:45;;;;;;;7.30;4.32;;;;;;;11.57;73.03;98150.69;5027801;28;20567;-62
2022/07/17 02:22:12;;;;;;;5.78;4.18;;;;;;;11.64;72.77;98147.03;5028527;28;20061;-62
2022/07/17 02:24:38;;;;;;;5.95;3.90;;;;;;;11.57;72.91;98147.16;5028868;28;20045;-63
2022/07/17 02:27:05;;;;;;;6.95;3.65;;;;;;;11.57;72.77;98145.28;5028438;28;20049;-63
2022/07/17 02:29:31;;;;;;;7.03;4.20;;;;;;;11.51;73.19;98148.13;5028182;28;20046;-62
2022/07/17 02:31:58;;;;;;;6.63;4.32;;;;;;;11.51;72.99;98140.81;5028728;28;20566;-63
2022/07/17 02:34:24;;;;;;;6.38;3.97;;;;;;;11.49;73.15;98151.06;5032569;28;20111;-63
2022/07/17 02:36:51;;;;;;;8.35;4.75;;;;;;;11.50;73.04;98139.16;5042369;28;20049;-63
2022/07/17 02:39:18;;;;;;;5.93;4.00;;;;;;;11.42;73.40;98143.06;5029127;28;20041;-63
2022/07/17 02:41:44;;;;;;;6.97;3.88;;;;;;;11.37;73.60;98144.84;5027487;28;20049;-63
2022/07/17 02:44:10;;;;;;;6.10;4.28;;;;;;;11.36;73.61;98135.91;5027466;28;20056;-63
2022/07/17 02:46:37;;;;;;;9.35;4.32;;;;;;;11.23;74.23;98134.25;5027745;28;20076;-62
2022/07/17 02:49:04;;;;;;;6.25;4.40;;;;;;;11.28;74.21;98126.22;5030857;28;20045;-62
2022/07/17 02:51:30;;;;;;;6.55;4.18;;;;;;;11.26;74.03;98128.38;5047832;28;20048;-62
2022/07/17 02:53:57;;;;;;;8.02;4.25;;;;;;;11.13;74.37;98131.31;5030119;28;20045;-62
2022/07/17 02:56:24;;;;;;;7.82;4.82;;;;;;;11.10;74.56;98129.91;5027338;28;20046;-63
2022/07/17 02:58:50;;;;;;;5.68;4.30;;;;;;;11.00;74.84;98125.09;5033880;28;20641;-63
2022/07/17 03:01:17;;;;;;;7.50;4.93;;;;;;;10.98;74.97;98127.19;5037256;28;20045;-63
2022/07/17 03:03:45;;;;;;;5.88;4.53;;;;;;;10.93;75.17;98132.50;5033086;28;20106;-62
2022/07/17 03:06:12;;;;;;;5.32;4.22;;;;;;;10.90;75.17;98128.38;5028212;28;20107;-62
2022/07/17 03:08:39;;;;;;;5.70;4.30;;;;;;;10.87;75.47;98133.44;5028810;28;20698;-62
2022/07/17 03:11:05;;;;;;;6.70;4.35;;;;;;;10.85;75.44;98122.84;5011762;28;20054;-62
2022/07/17 03:13:32;;;;;;;6.20;4.88;;;;;;;10.82;75.56;98128.72;5022240;28;20073;-62
2022/07/17 03:15:59;;;;;;;10.15;5.00;;;;;;;10.78;75.81;98122.97;5038592;28;20582;-63
2022/07/17 03:18:25;;;;;;;5.93;4.80;;;;;;;10.78;75.78;98122.97;5031569;28;20037;-63
2022/07/17 03:20:52;;;;;;;6.30;4.28;;;;;;;10.80;75.74;98126.25;5027736;28;20095;-62
2022/07/17 03:23:18;;;;;;;5.72;4.50;;;;;;;10.86;75.46;98120.94;5027217;28;20065;-63
2022/07/17 03:25:45;;;;;;;8.43;4.40;;;;;;;10.85;75.46;98119.31;5043587;28;20531;-63
2022/07/17 03:28:11;;;;;;;5.22;4.50;;;;;;;10.80;75.96;98123.53;5034720;28;20053;-63
2022/07/17 03:30:38;;;;;;;7.18;4.07;;;;;;;10.75;75.66;98131.56;5027617;28;20045;-63
2022/07/17 03:33:04;;;;;;;6.90;4.82;;;;;;;10.69;76.00;98128.97;5029271;28;20045;-63
2022/07/17 03:35:31;;;;;;;5.68;4.05;;;;;;;10.75;75.81;98136.13;5029425;28;20432;-62
2022/07/17 03:37:57;;;;;;;8.05;4.78;;;;;;;10.67;76.23;98131.91;5023715;28;20045;-63
2022/07/17 03:40:24;;;;;;;7.28;4.75;;;;;;;10.59;76.71;98135.78;5025484;28;20247;-63
2022/07/17 03:42:51;;;;;;;7.22;4.78;;;;;;;10.61;76.65;98130.13;5026610;28;20041;-62
2022/07/17 03:45:17;;;;;;;6.22;4.53;;;;;;;10.60;76.91;98132.00;5025216;28;20312;-63
2022/07/17 03:47:44;;;;;;;6.05;4.45;;;;;;;10.51;77.25;98133.41;5024670;28;20047;-63
2022/07/17 03:50:11;;;;;;;5.65;4.60;;;;;;;10.52;76.93;98132.34;5024633;28;20561;-63
2022/07/17 03:52:37;;;;;;;5.80;4.43;;;;;;;10.57;76.71;98140.59;5029044;28;20041;-62
2022/07/17 03:55:04;;;;;;;5.28;4.20;;;;;;;10.63;76.27;98139.69;5029146;28;20046;-62
2022/07/17 03:57:31;;;;;;;7.30;5.20;;;;;;;10.59;76.27;98140.34;5026622;28;20440;-62
2022/07/17 04:00:00;;;;;;;6.75;4.15;;;;;;;10.56;76.52;98147.06;5027088;28;20088;-63
2022/07/17 04:02:37;;;;;;;10.63;4.97;;;;;;;10.56;76.55;98149.78;5026741;28;20132;-63
2022/07/17 04:05:04;;;;;;;5.85;4.72;;;;;;;10.56;76.47;98147.06;5041836;28;20049;-62
2022/07/17 04:07:31;;;;;;;6.82;4.60;;;;;;;10.68;75.99;98140.84;5033618;28;20060;-63
2022/07/17 04:09:59;;;;;;;6.15;4.70;;;;;;;10.77;75.58;98140.25;5027280;28;20038;-63
2022/07/17 04:12:26;;;;;;;5.60;4.25;;;;;;;10.70;75.70;98144.97;5025949;28;20296;-62
2022/07/17 04:14:53;;;;;;;6.22;4.85;;;;;;;10.66;75.90;98144.59;5026475;28;20069;-62
2022/07/17 04:17:20;;;;;;;6.55;4.32;;;;;;;10.63;76.53;98147.78;5026331;28;20049;-62
2022/07/17 04:19:46;;;;;;;6.45;4.18;;;;;;;10.63;76.30;98152.38;5026358;28;20050;-63
2022/07/17 04:22:13;;;;;;;5.80;4.32;;;;;;;10.67;76.08;98153.56;5025773;28;20179;-62
2022/07/17 04:24:40;;;;;;;7.75;5.35;;;;;;;10.59;76.74;98146.63;5025463;28;20041;-62
2022/07/17 04:27:07;;;;;;;8.48;4.90;;;;;;;10.57;77.06;98147.91;5026303;28;20054;-63
2022/07/17 04:29:34;;;;;;;6.88;4.50;;;;;;;10.63;77.10;98152.38;5026631;28;20496;-62
2022/07/17 04:32:00;;;;;;;6.07;4.63;;;;;;;10.70;76.51;98149.56;5026910;28;20049;-62
2022/07/17 04:34:27;;;;;;;7.32;4.30;;;;;;;10.86;75.90;98150.75;5028104;28;20126;-62
2022/07/17 04:36:54;;;;;;;5.82;4.40;;;;;;;10.85;75.98;98151.81;5027333;28;20038;-62
2022/07/17 04:39:21;;;;;;;7.28;4.25;;;;;;;10.96;75.70;98151.00;5026458;28;20056;-61
2022/07/17 04:41:48;;;;;;;5.55;4.50;;;;;;;10.98;75.88;98139.94;5025357;28;20048;-62
2022/07/17 04:44:14;;;;;;;5.55;4.40;;;;;;;11.11;75.27;98150.53;5026120;28;20053;-61
2022/07/17 04:46:41;;;;;;;7.15;4.90;;;;;;;11.17;75.31;98146.88;5025743;28;20064;-62
2022/07/17 04:49:07;;;;;;;6.65;5.50;;;;;;;11.24;75.19;98146.75;5025828;28;20468;-62
2022/07/17 04:51:34;;;;;;;6.20;5.13;;;;;;;11.25;75.29;98148.41;5031716;28;20045;-62
2022/07/17 04:54:01;;;;;;;6.75;4.32;;;;;;;11.45;74.42;98149.91;5027759;28;20545;-63
2022/07/17 04:56:27;;;;;;;7.40;4.97;;;;;;;11.57;74.23;98149.88;5022930;28;20049;-62
2022/07/17 04:58:54;;;;;;;5.43;4.22;;;;;;;11.74;73.82;98157.25;5024051;28;20041;-62
2022/07/17 05:01:21;;;;;;;5.80;4.22;;;;;;;11.79;73.70;98158.19;5023826;28;20045;-62
2022/07/17 05:03:47;;;;;;;7.07;4.85;;;;;;;11.88;73.66;98152.38;5022760;28;20041;-63
2022/07/17 05:06:14;;;;;;;5.22;4.30;;;;;;;12.02;73.47;98156.44;5023289;28;20266;-62
2022/07/17 05:08:40;;;;;;;5.88;4.53;;;;;;;12.13;73.42;98153.97;5025104;28;20500;-62
2022/07/17 05:11:07;;;;;;;4.70;3.90;;;;;;;12.24;72.75;98155.81;5023407;28;20045;-63
2022/07/17 05:13:34;;;;;;;7.63;4.32;;;;;;;12.34;72.63;98157.88;5022359;28;20049;-62
2022/07/17 05:16:00;;;;;;;5.85;3.95;;;;;;;12.39;72.67;98163.44;5025669;28;20050;-62
2022/07/17 05:18:27;;;;;;;6.88;4.18;;;;;;;12.61;71.92;98154.56;5026126;28;20070;-62
2022/07/17 05:20:53;;;;;;;5.03;3.70;;;;;;;12.76;71.77;98154.00;5041499;28;20102;-62
2022/07/17 05:23:20;;;;;;;7.07;4.40;;;;;;;12.83;71.81;98161.97;5035490;28;20124;-63
2022/07/17 05:25:47;;;;;;;5.60;3.85;;;;;;;12.94;71.05;98152.91;5024867;28;20440;-63
2022/07/17 05:28:13;;;;;;;7.15;3.97;;;;;;;13.18;70.39;98154.59;5025259;28;20107;-63
2022/07/17 05:30:40;;;;;;;5.63;3.70;;;;;;;13.37;69.57;98155.13;5023806;28;20048;-63
2022/07/17 05:33:06;;;;;;;4.85;3.60;;;;;;;13.66;67.98;98152.28;5023277;28;20164;-62
2022/07/17 05:35:33;;;;;;;5.35;3.85;;;;;;;13.70;68.64;98150.72;5023022;28;20037;-61
2022/07/17 05:37:59;;;;;;;5.13;3.85;;;;;;;13.78;69.08;98158.44;5023277;28;20037;-63
2022/07/17 05:40:26;;;;;;;4.47;3.20;;;;;;;13.85;69.24;98160.97;5022984;28;20045;-64
2022/07/17 05:42:52;;;;;;;5.80;4.15;;;;;;;14.01;69.25;98161.16;5025649;28;20068;-62
2022/07/17 05:45:19;;;;;;;5.38;3.60;;;;;;;14.13;67.87;98164.56;5034190;28;20172;-62
2022/07/17 05:47:45;;;;;;;6.38;3.55;;;;;;;14.31;66.37;98165.28;5024708;28;20111;-63
2022/07/17 05:50:12;;;;;;;5.68;3.60;;;;;;;14.51;65.79;98169.25;5038858;28;20046;-63
2022/07/17 05:52:38;;;;;;;5.65;3.70;;;;;;;14.64;64.05;98168.03;5023765;28;20041;-62
2022/07/17 05:55:05;;;;;;;6.85;3.58;;;;;;;14.93;62.98;98171.28;5026596;28;20042;-62
2022/07/17 05:57:33;;;;;;;5.78;3.60;;;;;;;15.03;61.30;98169.72;5026824;28;20053;-63
2022/07/17 05:59:59;;;;;;;7.22;4.32;;;;;;;15.22;61.09;98170.13;5026500;28;20544;-63
2022/07/17 06:02:26;;;;;;;4.97;3.55;;;;;;;15.46;60.06;98167.00;5026736;28;20060;-62
2022/07/17 06:04:53;;;;;;;4.70;3.10;;;;;;;15.55;59.04;98164.59;5026548;28;20049;-62
2022/07/17 06:07:19;;;;;;;7.40;3.50;;;;;;;15.81;59.53;98170.19;5026053;28;20261;-67
2022/07/17 06:09:46;;;;;;;6.25;3.40;;;;;;;16.01;57.89;98164.00;5026055;28;20124;-67
2022/07/17 06:12:12;;;;;;;6.30;3.53;;;;;;;16.22;58.22;98170.31;5025653;28;20045;-68
2022/07/17 06:14:39;;;;;;;7.63;3.25;;;;;;;16.47;56.96;98173.41;5024356;28;20049;-67
2022/07/17 06:17:06;;;;;;;4.25;3.35;;;;;;;16.61;56.20;98177.25;5024549;28;20511;-67
2022/07/17 06:19:32;;;;;;;7.57;3.20;;;;;;;16.69;56.04;98175.88;5031086;28;20167;-67
2022/07/17 06:21:59;;;;;;;7.78;3.10;;;;;;;16.77;55.61;98174.53;5032424;28;20091;-67
2022/07/17 06:24:25;;;;;;;8.82;3.88;;;;;;;16.92;55.42;98178.34;5023144;28;20034;-67
2022/07/17 06:26:52;;;;;;;6.32;2.85;;;;;;;16.99;55.05;98176.97;5027996;28;20103;-67
2022/07/17 06:29:18;;;;;;;7.40;2.97;;;;;;;16.97;54.15;98176.44;5028235;28;20053;-67
2022/07/17 06:31:45;;;;;;;4.03;2.70;;;;;;;17.16;53.35;98174.00;5028423;28;20045;-67
2022/07/17 06:34:12;;;;;;;5.50;3.05;;;;;;;17.35;52.58;98178.03;5028029;28;20046;-67
2022/07/17 06:36:38;;;;;;;5.68;2.75;;;;;;;17.51;52.72;98187.84;5029384;28;20037;-67
2022/07/17 06:39:05;;;;;;;3.65;2.38;;;;;;;17.58;52.53;98179.34;5029070;28;20053;-67
2022/07/17 06:41:31;;;;;;;4.60;2.60;;;;;;;17.61;51.53;98180.75;5028627;28;20045;-67
2022/07/17 06:43:58;;;;;;;5.03;2.70;;;;;;;17.67;52.13;98183.19;5028267;28;20649;-67
2022/07/17 06:46:24;;;;;;;5.10;2.58;;;;;;;17.78;52.23;98189.44;5027984;28;20049;-67
2022/07/17 06:48:51;;;;;;;4.38;3.00;;;;;;;17.78;52.11;98185.88;5027893;28;20045;-68
2022/07/17 06:51:18;;;;;;;5.15;3.03;;;;;;;17.87;52.55;98188.88;5028971;28;20045;-67
2022/07/17 06:53:45;;;;;;;4.80;2.65;;;;;;;17.99;52.38;98188.53;5029427;28;20092;-67
2022/07/17 06:56:11;;;;;;;4.05;2.60;;;;;;;18.05;52.53;98188.22;5027603;28;20056;-67
2022/07/17 06:58:38;;;;;;;5.05;2.53;;;;;;;18.14;50.19;98187.69;5028230;28;20038;-67
2022/07/17 07:01:05;;;;;;;4.38;2.40;;;;;;;18.13;51.47;98194.25;5027900;28;20045;-68
2022/07/17 07:03:31;;;;;;;3.72;2.30;;;;;;;18.27;51.89;98191.69;5027864;28;20055;-67
2022/07/17 07:05:59;;;;;;;3.80;2.63;;;;;;;18.38;52.60;98195.22;5027171;28;20042;-67
2022/07/17 07:08:25;;;;;;;6.40;3.10;;;;;;;18.40;51.36;98195.75;5028169;28;20060;-67
2022/07/17 07:10:52;;;;;;;5.95;2.85;;;;;;;18.40;50.99;98209.47;5027413;28;20103;-67
2022/07/17 07:13:18;;;;;;;5.25;2.67;;;;;;;18.54;50.67;98210.47;5027924;28;20532;-67
2022/07/17 07:15:45;;;;;;;4.93;2.67;;;;;;;18.57;50.76;98212.66;5027670;28;20099;-67
2022/07/17 07:18:12;;;;;;;5.68;2.80;;;;;;;18.69;50.16;98211.47;5031319;28;20045;-67
2022/07/17 07:20:39;;;;;;;4.10;2.72;;;;;;;18.68;49.99;98212.56;5036986;28;20530;-67
2022/07/17 07:23:05;;;;;;;4.68;2.78;;;;;;;18.79;49.09;98214.13;5027233;28;20512;-67
2022/07/17 07:25:33;;;;;;;4.70;2.70;;;;;;;18.82;48.79;98210.00;5027320;28;20079;-67
2022/07/17 07:28:02;;;;;;;6.15;2.63;;;;;;;18.98;49.12;98213.44;5026745;28;20135;-67
2022/07/17 07:30:28;;;;;;;5.68;2.78;;;;;;;18.97;48.64;98207.16;5027729;28;20059;-67
2022/07/17 07:32:55;;;;;;;5.60;2.30;;;;;;;19.12;48.63;98210.09;5027568;28;20075;-67
2022/07/17 07:35:22;;;;;;;5.60;2.83;;;;;;;19.19;47.89;98208.66;5026641;28;20562;-67
2022/07/17 07:37:49;;;;;;;4.03;2.45;;;;;;;19.36;47.91;98208.19;5027075;28;20523;-67
2022/07/17 07:40:16;;;;;;;8.10;3.08;;;;;;;19.27;47.18;98211.88;5026895;28;20053;-68
2022/07/17 07:42:42;;;;;;;4.55;2.58;;;;;;;19.24;47.46;98208.59;5026857;28;20041;-67
2022/07/17 07:45:09;;;;;;;4.43;3.00;;;;;;;19.21;47.65;98200.91;5026827;28;20046;-67
2022/07/17 07:47:52;;;;;;;5.05;2.50;;;;;;;19.43;46.90;98199.66;5026817;28;20111;-67
2022/07/17 07:50:22;;;;;;;5.43;2.70;;;;;;;19.55;46.92;98199.25;5026874;28;20049;-67
2022/07/17 07:52:50;;;;;;;4.03;2.20;;;;;;;19.63;47.47;98195.03;5026965;28;20061;-67
2022/07/17 07:55:16;;;;;;;5.82;2.40;;;;;;;19.73;46.51;98199.59;5025000;28;20053;-67
2022/07/17 07:58:00;;;;;;;3.33;2.10;;;;;;;19.75;45.65;98205.59;5025994;28;20483;-67
2022/07/17 08:00:27;;;;;;;2.92;1.92;;;;;;;20.01;45.31;98208.06;5026448;28;20045;-68
2022/07/17 08:02:53;;;;;;;4.05;2.13;;;;;;;20.07;44.59;98206.09;5026409;28;20052;-68
2022/07/17 08:05:21;;;;;;;3.53;2.03;;;;;;;20.11;44.18;98210.72;5026734;28;20038;-68
2022/07/17 08:07:48;;;;;;;3.65;2.20;;;;;;;20.10;44.26;98213.75;5026516;28;20463;-67
2022/07/17 08:10:15;;;;;;;5.38;2.20;;;;;;;20.18;44.55;98206.78;5027177;28;20052;-67
2022/07/17 08:12:41;;;;;;;6.57;2.38;;;;;;;20.22;44.30;98211.41;5026438;28;20073;-67
2022/07/17 08:15:12;;;;;;;4.10;2.20;;;;;;;20.29;45.14;98219.28;5026092;28;20057;-67
2022/07/17 08:17:39;;;;;;;4.50;2.30;;;;;;;20.48;44.78;98216.53;5024970;28;20456;-67
2022/07/17 08:20:07;;;;;;;4.35;2.30;;;;;;;20.55;44.91;98207.91;5006766;28;20363;-68
2022/07/17 08:22:43;;;;;;;7.88;2.53;;;;;;;20.61;45.11;98217.75;5013857;28;20468;-67
2022/07/17 08:25:30;;;;;;;3.72;2.25;;;;;;;20.77;44.17;98215.56;5017258;28;20069;-67
2022/07/17 08:27:57;;;;;;;5.03;1.92;;;;;;;20.89;43.93;98217.88;5026466;28;20116;-67
2022/07/17 08:30:24;;;;;;;5.40;2.30;;;;;;;20.99;44.16;98213.34;5030723;28;20035;-68
2022/07/17 08:32:50;;;;;;;4.43;2.47;;;;;;;20.89;44.34;98212.38;5037743;28;20072;-67
2022/07/17 08:35:17;;;;;;;6.35;2.90;;;;;;;20.83;44.02;98215.50;5025868;28;20048;-67
2022/07/17 08:37:51;;;;;;;3.88;2.38;;;;;;;20.83;43.46;98212.75;5024020;28;20041;-67
2022/07/17 08:40:21;;;;;;;6.93;2.28;;;;;;;20.90;43.98;98211.25;5026630;28;20382;-67
2022/07/17 08:42:50;;;;;;;4.83;2.43;;;;;;;21.04;42.77;98204.97;5026284;28;20038;-67
2022/07/17 08:45:16;;;;;;;4.93;2.25;;;;;;;21.02;42.89;98213.56;5029875;28;20503;-67
2022/07/17 08:47:43;;;;;;;6.88;2.00;;;;;;;21.18;42.62;98208.63;5023627;28;20096;-67
2022/07/17 08:50:11;;;;;;;3.85;2.53;;;;;;;21.43;42.52;98212.03;5036362;28;20053;-67
2022/07/17 08:52:39;;;;;;;6.40;2.70;;;;;;;21.52;41.59;98211.34;5031046;28;20053;-67
2022/07/17 08:55:13;;;;;;;3.80;1.90;;;;;;;21.60;41.49;98209.81;5023915;28;20219;-67
2022/07/17 08:57:43;;;;;;;3.88;1.95;;;;;;;21.59;41.39;98214.50;5035176;28;20516;-68
2022/07/17 09:00:18;;;;;;;3.45;1.88;;;;;;;21.49;41.26;98214.69;5029076;28;20052;-68
2022/07/17 09:03:03;;;;;;;7.00;2.13;;;;;;;21.57;40.88;98220.31;5026400;28;20266;-67
2022/07/17 09:05:36;;;;;;;3.33;2.15;;;;;;;21.78;40.40;98216.41;5027706;28;20084;-67
2022/07/17 09:08:03;;;;;;;4.20;2.00;;;;;;;21.94;40.67;98217.72;5028083;28;20504;-67
2022/07/17 09:10:38;;;;;;;4.20;2.17;;;;;;;22.00;39.59;98221.16;5025493;28;20049;-67
2022/07/17 09:13:18;;;;;;;4.45;2.20;;;;;;;22.14;39.83;98223.09;5025615;28;20414;-68
2022/07/17 09:15:47;;;;;;;3.22;1.70;;;;;;;22.15;39.18;98227.50;5024794;28;20073;-67
2022/07/17 09:18:15;;;;;;;5.60;1.90;;;;;;;22.25;38.94;98224.53;5024350;28;20505;-67
2022/07/17 09:20:51;;;;;;;4.07;2.00;;;;;;;22.41;38.94;98222.25;5040068;28;20075;-67
2022/07/17 09:23:20;;;;;;;4.43;2.10;;;;;;;22.40;37.66;98228.91;5023872;28;20045;-67
2022/07/17 09:25:51;;;;;;;2.85;1.70;;;;;;;22.31;37.42;98214.22;5025304;28;20409;-67
2022/07/17 09:28:20;;;;;;;3.58;2.00;;;;;;;22.41;37.27;98219.50;5027766;28;20493;-67
2022/07/17 09:30:49;;;;;;;3.33;1.90;;;;;;;22.42;37.77;98212.03;5029626;28;20046;-67
2022/07/17 09:33:18;;;;;;;3.00;1.85;;;;;;;22.42;36.99;98214.78;5029504;28;20037;-67
2022/07/17 09:35:56;;;;;;;3.35;1.70;;;;;;;22.44;37.19;98213.34;5024540;28;20497;-68
2022/07/17 09:38:42;;;;;;;5.43;2.20;;;;;;;22.24;37.29;98213.81;5025314;28;20049;-68
2022/07/17 09:41:16;;;;;;;4.07;1.85;;;;;;;22.38;36.76;98216.53;5018456;28;20071;-67
2022/07/17 09:43:44;;;;;;;5.47;1.65;;;;;;;22.51;36.20;98214.88;5023982;28;20125;-67
2022/07/17 09:46:15;;;;;;;2.25;1.40;;;;;;;22.48;34.87;98210.78;5019520;28;20568;-68
2022/07/17 09:48:47;;;;;;;2.60;1.38;;;;;;;22.42;35.34;98203.75;5022930;28;20049;-67
2022/07/17 09:51:20;;;;;;;4.38;1.70;;;;;;;22.45;35.55;98211.44;5027843;28;20130;-68
2022/07/17 09:53:48;;;;;;;3.47;1.30;;;;;;;22.62;34.64;98215.50;5027404;28;20125;-68
2022/07/17 09:56:17;;;;;;;2.45;1.50;;;;;;;22.59;35.07;98220.50;5026962;28;20074;-68
2022/07/17 09:58:53;;;;;;;2.30;1.40;;;;;;;22.56;33.94;98215.59;5024465;28;20052;-68
2022/07/17 10:01:20;;;;;;;3.13;1.63;;;;;;;22.68;34.30;98215.06;5025701;28;20060;-68
2022/07/17 10:03:53;;;;;;;2.72;1.45;;;;;;;22.78;34.75;98221.47;5024033;28;20042;-68
2022/07/17 10:06:21;;;;;;;4.15;1.60;;;;;;;22.74;34.47;98213.81;5023744;28;20072;-68
2022/07/17 10:08:50;;;;;;;1.65;1.20;;;;;;;22.89;34.64;98213.75;5026006;28;20053;-68
2022/07/17 10:11:20;;;;;;;3.70;1.70;;;;;;;23.13;32.04;98213.44;5026152;28;20053;-68
2022/07/17 10:13:50;;;;;;;3.03;1.50;;;;;;;23.12;31.91;98223.69;5025145;28;20048;-68
2022/07/17 10:16:27;;;;;;;2.95;1.50;;;;;;;23.17;31.89;98208.09;5026067;28;20041;-68
2022/07/17 10:18:57;;;;;;;3.50;1.20;;;;;;;23.22;31.86;98206.03;5029447;28;20048;-68
2022/07/17 10:21:25;;;;;;;5.75;1.30;;;;;;;23.37;31.03;98201.28;5026375;28;20049;-68
2022/07/17 10:23:52;;;;;;;4.07;1.77;;;;;;;23.52;30.53;98205.56;5013612;28;20704;-68
2022/07/17 10:26:38;;;;;;;2.50;1.25;;;;;;;23.57;30.93;98199.06;5032656;28;20083;-68
2022/07/17 10:29:31;;;;;;;3.72;1.40;;;;;;;23.61;30.97;98186.25;5018519;28;20076;-68
2022/07/17 10:31:59;;;;;;;5.93;1.50;;;;;;;23.63;32.01;98184.00;5027968;28;20126;-68
2022/07/17 10:34:53;;;;;;;3.30;1.40;;;;;;;23.66;32.71;98194.41;5027611;28;20041;-68
2022/07/17 10:37:25;;;;;;;4.32;1.70;;;;;;;23.97;31.70;98192.72;5024462;28;20347;-69
2022/07/17 10:40:11;;;;;;;2.92;1.35;;;;;;;23.93;32.09;98188.97;5032539;28;20356;-69
2022/07/17 10:42:49;;;;;;;3.30;1.40;;;;;;;24.03;31.50;98189.47;5019825;28;20508;-69
2022/07/17 10:45:19;;;;;;;2.40;1.33;;;;;;;24.02;30.98;98185.09;5026171;28;20049;-68
2022/07/17 10:47:58;;;;;;;4.65;1.50;;;;;;;24.15;30.32;98190.84;5020794;28;20037;-68
2022/07/17 10:50:53;;;;;;;3.63;1.33;;;;;;;24.07;29.29;98180.56;5025529;28;20045;-68
2022/07/17 10:53:29;;;;;;;2.97;1.20;;;;;;;24.14;30.13;98180.94;5035515;28;20412;-69
2022/07/17 10:56:03;;;;;;;3.58;1.00;;;;;;;24.50;29.48;98181.75;5045367;28;20508;-69
2022/07/17 10:58:50;;;;;;;2.67;1.42;;;;;;;24.53;28.17;98189.44;5028295;28;20076;-68
2022/07/17 11:01:20;;;;;;;1.92;1.10;;;;;;;24.52;27.33;98187.81;5013592;28;20295;-67
2022/07/17 11:03:49;;;;;;;3.60;1.30;;;;;;;24.34;27.86;98181.44;5041802;28;20041;-70
2022/07/17 11:06:20;;;;;;;5.18;1.20;;;;;;;24.71;28.78;98192.19;5023338;28;20728;-67
2022/07/17 11:09:00;;;;;;;2.90;1.52;;;;;;;24.77;28.37;98186.16;5023537;28;20060;-65
2022/07/17 11:11:46;;;;;;;3.15;1.15;;;;;;;24.62;26.80;98184.69;5034012;28;20048;-69
2022/07/17 11:14:24;;;;;;;3.55;1.33;;;;;;;24.42;27.94;98180.63;5039577;28;20056;-68
2022/07/17 11:16:50;;;;;;;2.92;1.40;;;;;;;24.67;28.75;98167.94;5024026;28;20107;-68
2022/07/17 11:19:21;;;;;;;4.00;1.50;;;;;;;24.88;28.37;98177.56;5026259;28;20401;-64
2022/07/17 11:21:49;;;;;;;;;;;;;;;24.91;27.84;98176.91;5033407;28;20039;-68
2022/07/17 11:24:15;;;;;;;2.55;1.20;;;;;;;25.01;27.40;98179.34;5020383;28;19938;-72
2022/07/17 11:26:44;;;;;;;2.22;1.30;;;;;;;25.07;27.36;98183.56;5000603;28;20041;-71
2022/07/17 11:29:11;;;;;;;1.52;1.00;;;;;;;25.18;25.93;98181.25;5006909;28;20042;-64
2022/07/17 11:31:38;;;;;;;3.22;1.10;;;;;;;25.20;26.24;98178.97;5007678;28;20046;-71
2022/07/17 11:34:09;;;;;;;3.63;1.27;;;;;;;25.29;24.02;98178.97;5006786;28;20047;-68
2022/07/17 11:36:38;;;;;;;2.63;1.20;;;;;;;25.15;24.96;98181.09;4999680;28;20062;-73
2022/07/17 11:39:13;;;;;;;2.10;1.20;;;;;;;25.19;25.93;98179.28;5001973;28;20042;-72
2022/07/17 11:43:40;;;;;;;2.25;1.20;;;;;;;25.24;25.34;98179.13;5016869;28;20914;-71